createdAt,value
2018-04-17T00:02:20.840Z,98786.00
2018-04-17T00:04:50.247Z,98791.64
2018-04-17T00:07:19.110Z,98792.73
2018-04-17T00:09:48.089Z,98792.50
2018-04-17T00:12:17.959Z,98794.86
2018-04-17T00:14:46.544Z,98795.88
2018-04-17T00:17:15.201Z,98798.37
2018-04-17T00:19:43.748Z,98796.69
2018-04-17T00:22:13.246Z,98808.12
2018-04-17T00:24:42.005Z,98810.03
2018-04-17T00:27:10.816Z,98806.08
2018-04-17T00:29:39.639Z,98809.56
2018-04-17T00:32:08.212Z,98816.12
2018-04-17T00:34:36.827Z,98823.36
2018-04-17T00:37:05.542Z,98826.41
2018-04-17T00:39:34.318Z,98828.24
2018-04-17T00:42:04.390Z,98830.95
2018-04-17T00:44:33.276Z,98828.95
2018-04-17T00:47:02.647Z,98830.21
2018-04-17T00:49:31.185Z,98835.45
2018-04-17T00:51:59.724Z,98833.30
2018-04-17T00:54:28.416Z,98832.70
2018-04-17T00:56:56.982Z,98833.66
2018-04-17T00:59:25.580Z,98837.28
2018-04-17T01:01:54.259Z,98834.18
2018-04-17T01:04:22.845Z,98838.95
2018-04-17T01:06:51.398Z,98841.89
2018-04-17T01:09:20.140Z,98843.20
2018-04-17T01:11:49.630Z,98842.75
2018-04-17T01:14:18.668Z,98850.02
2018-04-17T01:16:47.635Z,98846.25
2018-04-17T01:19:16.415Z,98849.85
2018-04-17T01:21:45.877Z,98844.09
2018-04-17T01:24:14.559Z,98850.58
2018-04-17T01:26:43.182Z,98852.45
2018-04-17T01:29:11.858Z,98855.36
2018-04-17T01:31:41.176Z,98853.74
2018-04-17T01:34:10.583Z,98860.16
2018-04-17T01:36:39.892Z,98859.48
2018-04-17T01:39:08.663Z,98865.66
2018-04-17T01:41:37.426Z,98862.79
2018-04-17T01:44:08.136Z,98870.19
2018-04-17T01:46:37.879Z,98868.27
2018-04-17T01:49:06.745Z,98874.86
2018-04-17T01:51:36.308Z,98877.79
2018-04-17T01:54:05.093Z,98880.58
2018-04-17T01:56:33.880Z,98885.09
2018-04-17T01:59:03.325Z,98885.02
2018-04-17T02:01:31.939Z,98885.70
2018-04-17T02:04:00.721Z,98888.74
2018-04-17T02:06:30.368Z,98895.62
2018-04-17T02:08:59.092Z,98890.23
2018-04-17T02:11:27.834Z,98889.34
2018-04-17T02:13:56.533Z,98892.80
2018-04-17T02:16:26.875Z,98897.89
2018-04-17T02:18:55.862Z,98901.21
2018-04-17T02:21:24.469Z,98904.73
2018-04-17T02:23:53.094Z,98909.10
2018-04-17T02:26:21.755Z,98907.50
2018-04-17T02:28:51.118Z,98909.81
2018-04-17T02:31:19.760Z,98906.66
2018-04-17T02:33:48.403Z,98910.20
2018-04-17T02:36:17.124Z,98911.56
2018-04-17T02:38:45.802Z,98906.44
2018-04-17T02:41:15.159Z,98906.86
2018-04-17T02:43:43.729Z,98911.27
2018-04-17T02:46:13.083Z,98910.26
2018-04-17T02:48:42.063Z,98913.17
2018-04-17T02:51:12.437Z,98920.67
2018-04-17T02:53:41.039Z,98916.99
2018-04-17T02:56:09.738Z,98914.78
2018-04-17T02:58:38.668Z,98910.31
2018-04-17T03:01:07.239Z,98924.53
2018-04-17T03:03:36.522Z,98923.52
2018-04-17T03:06:05.229Z,98920.31
2018-04-17T03:08:33.975Z,98921.33
2018-04-17T03:11:02.615Z,98920.95
2018-04-17T03:13:31.313Z,98926.07
2018-04-17T03:15:59.937Z,98924.17
2018-04-17T03:18:28.436Z,98928.91
2018-04-17T03:20:57.116Z,98926.84
2018-04-17T03:23:26.260Z,98932.55
2018-04-17T03:25:55.266Z,98924.73
2018-04-17T03:28:23.954Z,98934.62
2018-04-17T03:30:53.441Z,98929.84
2018-04-17T03:33:22.041Z,98941.47
2018-04-17T03:35:50.593Z,98935.04
2018-04-17T03:38:19.980Z,98939.52
2018-04-17T03:40:48.495Z,98940.19
2018-04-17T03:43:17.098Z,98943.16
2018-04-17T03:45:45.632Z,98941.67
2018-04-17T03:48:14.212Z,98940.44
2018-04-17T03:50:43.993Z,98945.85
2018-04-17T03:53:13.456Z,98943.75
2018-04-17T03:55:42.839Z,98941.72
2018-04-17T03:58:12.146Z,98941.08
2018-04-17T04:00:40.833Z,98941.13
2018-04-17T04:03:10.325Z,98944.51
2018-04-17T04:05:38.935Z,98943.62
2018-04-17T04:08:08.432Z,98945.27
2018-04-17T04:10:36.922Z,98949.79
2018-04-17T04:13:05.470Z,98955.92
2018-04-17T04:15:34.205Z,98957.61
2018-04-17T04:18:21.520Z,98951.40
2018-04-17T04:21:08.511Z,98955.03
2018-04-17T04:23:55.094Z,98955.32
2018-04-17T04:26:33.124Z,98958.66
2018-04-17T04:29:01.756Z,98955.70
2018-04-17T04:31:31.189Z,98965.42
2018-04-17T04:34:00.673Z,98961.07
2018-04-17T04:36:29.493Z,98964.70
2018-04-17T04:38:58.448Z,98965.13
2018-04-17T04:41:28.003Z,98968.46
2018-04-17T04:43:56.937Z,98963.44
2018-04-17T04:46:25.561Z,98973.61
2018-04-17T04:48:54.191Z,98970.86
2018-04-17T04:51:23.522Z,98980.08
2018-04-17T04:53:52.163Z,98976.64
2018-04-17T04:56:20.743Z,98976.81
2018-04-17T04:58:49.297Z,98982.81
2018-04-17T05:01:17.869Z,98979.61
2018-04-17T05:03:46.456Z,98989.03
2018-04-17T05:06:15.027Z,98992.84
2018-04-17T05:08:43.626Z,98995.72
2018-04-17T05:11:12.645Z,98997.70
2018-04-17T05:13:42.295Z,99000.08
2018-04-17T05:16:11.868Z,98996.88
2018-04-17T05:18:40.567Z,98999.23
2018-04-17T05:21:09.137Z,99006.30
2018-04-17T05:23:38.596Z,99017.59
2018-04-17T05:26:07.307Z,99018.27
2018-04-17T05:28:35.995Z,99016.50
2018-04-17T05:31:04.928Z,99025.13
2018-04-17T05:33:33.552Z,99021.15
2018-04-17T05:36:02.141Z,99025.20
2018-04-17T05:38:30.919Z,99027.19
2018-04-17T05:41:00.240Z,99029.17
2018-04-17T05:43:30.046Z,99029.30
2018-04-17T05:45:59.185Z,99033.67
2018-04-17T05:48:27.959Z,99039.94
2018-04-17T05:50:57.406Z,99034.08
2018-04-17T05:53:26.879Z,99041.55
2018-04-17T05:55:55.598Z,99045.28
2018-04-17T05:58:24.237Z,99043.92
2018-04-17T06:00:52.889Z,99049.52
2018-04-17T06:03:21.477Z,99056.32
2018-04-17T06:05:50.213Z,99060.34
2018-04-17T06:08:18.825Z,99057.18
2018-04-17T06:10:47.759Z,99065.50
2018-04-17T06:13:17.311Z,99066.92
2018-04-17T06:15:47.399Z,99066.31
2018-04-17T06:18:16.653Z,99067.92
2018-04-17T06:20:45.551Z,99077.11
2018-04-17T06:23:14.183Z,99079.47
2018-04-17T06:25:43.760Z,99083.52
2018-04-17T06:28:12.471Z,99086.05
2018-04-17T06:30:41.310Z,99092.03
2018-04-17T06:33:10.199Z,99098.73
2018-04-17T06:35:39.314Z,99100.19
2018-04-17T06:38:08.004Z,99102.16
2018-04-17T06:40:36.618Z,99097.89
2018-04-17T06:43:05.322Z,99107.31
2018-04-17T06:45:33.894Z,99103.84
2018-04-17T06:48:03.450Z,99108.83
2018-04-17T06:50:33.493Z,99109.19
2018-04-17T06:53:02.441Z,99113.09
2018-04-17T06:55:31.166Z,99113.61
2018-04-17T06:58:00.280Z,99114.39
2018-04-17T07:00:28.800Z,99120.15
2018-04-17T07:02:57.354Z,99121.00
2018-04-17T07:05:25.999Z,99123.05
2018-04-17T07:07:54.689Z,99125.20
2018-04-17T07:10:23.652Z,99123.56
2018-04-17T07:12:52.302Z,99126.65
2018-04-17T07:15:21.184Z,99127.91
2018-04-17T07:17:49.840Z,99133.66
2018-04-17T07:20:18.673Z,99140.52
2018-04-17T07:22:49.444Z,99140.76
2018-04-17T07:25:18.362Z,99138.66
2018-04-17T07:27:46.939Z,99136.31
2018-04-17T07:30:16.365Z,99139.87
2018-04-17T07:32:45.767Z,99139.41
2018-04-17T07:35:14.545Z,99147.45
2018-04-17T07:37:43.142Z,99148.03
2018-04-17T07:40:11.844Z,99148.75
2018-04-17T07:42:40.486Z,99144.33
2018-04-17T07:45:09.900Z,99156.74
2018-04-17T07:47:38.723Z,99152.20
2018-04-17T07:50:07.491Z,99157.50
2018-04-17T07:52:36.953Z,99162.78
2018-04-17T07:55:06.130Z,99160.34
2018-04-17T07:57:34.894Z,99161.17
2018-04-17T08:00:03.534Z,99170.26
2018-04-17T08:02:32.216Z,99169.46
2018-04-17T08:05:01.649Z,99165.56
2018-04-17T08:07:30.649Z,99157.03
2018-04-17T08:09:59.973Z,99164.46
2018-04-17T08:12:28.535Z,99159.56
2018-04-17T08:14:57.155Z,99166.72
2018-04-17T08:17:25.936Z,99165.19
2018-04-17T08:19:54.863Z,99166.12
2018-04-17T08:22:23.572Z,99162.63
2018-04-17T08:24:52.488Z,99161.65
2018-04-17T08:27:21.851Z,99166.38
2018-04-17T08:29:51.330Z,99169.28
2018-04-17T08:32:20.069Z,99164.86
2018-04-17T08:34:48.786Z,99165.70
2018-04-17T08:37:17.384Z,99155.80
2018-04-17T08:39:46.059Z,99159.30
2018-04-17T08:42:14.722Z,99169.14
2018-04-17T08:44:44.320Z,99167.49
2018-04-17T08:47:13.479Z,99170.05
2018-04-17T08:49:42.076Z,99167.36
2018-04-17T08:52:11.529Z,99170.73
2018-04-17T08:54:40.145Z,99169.81
2018-04-17T08:57:08.843Z,99165.21
2018-04-17T08:59:38.263Z,99169.59
2018-04-17T09:02:07.972Z,99170.78
2018-04-17T09:04:37.645Z,99164.94
2018-04-17T09:07:06.547Z,99149.72
2018-04-17T09:09:36.359Z,99163.77
2018-04-17T09:12:05.363Z,99161.61
2018-04-17T09:14:35.000Z,99160.02
2018-04-17T09:17:03.744Z,99164.03
2018-04-17T09:19:34.617Z,99166.17
2018-04-17T09:22:04.211Z,99166.00
2018-04-17T09:24:32.881Z,99176.96
2018-04-17T09:27:03.781Z,99175.16
2018-04-17T09:29:33.187Z,99179.06
2018-04-17T09:32:01.909Z,99173.67
2018-04-17T09:34:30.795Z,99175.73
2018-04-17T09:37:00.331Z,99183.71
2018-04-17T09:39:29.190Z,99181.20
2018-04-17T09:41:58.709Z,99189.52
2018-04-17T09:44:28.798Z,99195.28
2018-04-17T09:46:58.465Z,99189.39
2018-04-17T09:49:27.216Z,99193.36
2018-04-17T09:51:56.876Z,99184.58
2018-04-17T09:54:25.709Z,99190.67
2018-04-17T09:56:54.659Z,99182.23
2018-04-17T09:59:24.286Z,99181.49
2018-04-17T10:01:54.531Z,99183.34
2018-04-17T10:04:24.488Z,99181.06
2018-04-17T10:06:53.921Z,99173.05
2018-04-17T10:09:22.927Z,99169.63
2018-04-17T10:11:51.570Z,99170.19
2018-04-17T10:14:20.620Z,99168.25
2018-04-17T10:16:49.356Z,99169.36
2018-04-17T10:19:18.119Z,99165.38
2018-04-17T10:21:46.911Z,99166.73
2018-04-17T10:24:16.131Z,99163.42
2018-04-17T10:26:44.868Z,99161.07
2018-04-17T10:29:14.035Z,99153.28
2018-04-17T10:31:44.228Z,99156.16
2018-04-17T10:34:13.943Z,99166.71
2018-04-17T10:36:43.268Z,99159.46
2018-04-17T10:39:13.051Z,99162.17
2018-04-17T10:41:42.561Z,99155.19
2018-04-17T10:44:11.860Z,99158.56
2018-04-17T10:46:40.698Z,99149.92
2018-04-17T10:49:09.359Z,99150.78
2018-04-17T10:51:38.004Z,99151.92
2018-04-17T10:54:07.396Z,99157.24
2018-04-17T10:56:36.182Z,99138.35
2018-04-17T10:59:05.605Z,99142.65
2018-04-17T11:01:34.671Z,99136.31
2018-04-17T11:04:04.136Z,99148.05
2018-04-17T11:06:32.831Z,99146.28
2018-04-17T11:09:01.803Z,99128.17
2018-04-17T11:11:32.145Z,99139.50
2018-04-17T11:14:00.913Z,99141.06
2018-04-17T11:16:29.828Z,99136.66
2018-04-17T11:18:58.492Z,99138.52
2018-04-17T11:21:27.128Z,99123.87
2018-04-17T11:23:55.843Z,99123.59
2018-04-17T11:26:24.505Z,99132.57
2018-04-17T11:28:53.337Z,99121.48
2018-04-17T11:31:23.773Z,99116.94
2018-04-17T11:33:52.609Z,99123.25
2018-04-17T11:36:21.262Z,99117.80
2018-04-17T11:38:49.884Z,99127.77
2018-04-17T11:41:18.530Z,99127.44
2018-04-17T11:43:47.955Z,99131.84
2018-04-17T11:46:16.590Z,99134.44
2018-04-17T11:48:45.263Z,99128.29
2018-04-17T11:51:14.369Z,99122.85
2018-04-17T11:53:43.051Z,99124.72
2018-04-17T11:56:11.897Z,99127.41
2018-04-17T11:58:41.577Z,99113.18
2018-04-17T12:01:10.567Z,99107.66
2018-04-17T12:03:40.073Z,99114.08
2018-04-17T12:06:11.449Z,99111.47
2018-04-17T12:08:40.108Z,99118.14
2018-04-17T12:11:09.109Z,99118.34
2018-04-17T12:13:38.004Z,99122.38
2018-04-17T12:16:06.757Z,99119.67
2018-04-17T12:18:36.354Z,99124.81
2018-04-17T12:21:05.417Z,99129.63
2018-04-17T12:23:35.436Z,99122.89
2018-04-17T12:26:05.393Z,99120.48
2018-04-17T12:28:34.746Z,99110.41
2018-04-17T12:31:04.873Z,99108.59
2018-04-17T12:33:34.814Z,99115.16
2018-04-17T12:36:04.969Z,99122.13
2018-04-17T12:38:33.716Z,99118.64
2018-04-17T12:41:02.526Z,99116.64
2018-04-17T12:43:32.030Z,99119.94
2018-04-17T12:46:00.577Z,99130.67
2018-04-17T12:48:29.231Z,99130.17
2018-04-17T12:50:57.923Z,99133.52
2018-04-17T12:53:26.514Z,99138.84
2018-04-17T12:55:55.180Z,99127.20
2018-04-17T12:58:24.653Z,99124.21
2018-04-17T13:00:53.496Z,99128.19
2018-04-17T13:03:23.091Z,99134.78
2018-04-17T13:05:52.059Z,99130.84
2018-04-17T13:08:20.866Z,99139.46
2018-04-17T13:10:50.329Z,99141.39
2018-04-17T13:13:19.027Z,99134.77
2018-04-17T13:15:47.746Z,99123.89
2018-04-17T13:18:16.471Z,99120.53
2018-04-17T13:20:45.234Z,99116.81
2018-04-17T13:23:14.702Z,99124.78
2018-04-17T13:25:43.674Z,99121.64
2018-04-17T13:28:13.235Z,99128.97
2018-04-17T13:30:42.001Z,99133.88
2018-04-17T13:33:12.071Z,99139.07
2018-04-17T13:35:42.139Z,99136.39
2018-04-17T13:38:10.806Z,99138.00
2018-04-17T13:40:39.458Z,99139.72
2018-04-17T13:43:08.082Z,99128.83
2018-04-17T13:45:36.842Z,99136.24
2018-04-17T13:48:05.664Z,99141.63
2018-04-17T13:50:34.273Z,99134.41
2018-04-17T13:53:02.900Z,99138.65
2018-04-17T13:55:32.395Z,99126.92
2018-04-17T13:58:01.111Z,99122.67
2018-04-17T14:00:29.757Z,99116.95
2018-04-17T14:02:58.332Z,99110.09
2018-04-17T14:05:27.525Z,99125.56
2018-04-17T14:07:57.381Z,99120.36
2018-04-17T14:10:26.897Z,99125.54
2018-04-17T14:12:55.526Z,99121.99
2018-04-17T14:15:24.157Z,99120.02
2018-04-17T14:17:52.749Z,99128.98
2018-04-17T14:20:21.584Z,99136.67
2018-04-17T14:22:51.116Z,99140.46
2018-04-17T14:25:20.651Z,99132.16
2018-04-17T14:27:49.369Z,99134.52
2018-04-17T14:30:20.123Z,99142.90
2018-04-17T14:32:49.025Z,99149.08
2018-04-17T14:35:18.653Z,99147.73
2018-04-17T14:37:48.718Z,99145.06
2018-04-17T14:40:18.165Z,99149.77
2018-04-17T14:42:49.181Z,99154.14
2018-04-17T14:45:17.928Z,99143.70
2018-04-17T14:47:47.178Z,99149.58
2018-04-17T14:50:15.927Z,99138.94
2018-04-17T14:52:44.762Z,99141.52
2018-04-17T14:55:14.022Z,99145.00
2018-04-17T14:57:42.699Z,99142.38
2018-04-17T15:00:12.989Z,99136.02
2018-04-17T15:02:42.022Z,99145.02
2018-04-17T15:05:10.767Z,99136.84
2018-04-17T15:07:40.020Z,99142.92
2018-04-17T15:10:12.181Z,99136.20
2018-04-17T15:12:41.321Z,99137.39
2018-04-17T15:15:11.987Z,99133.36
2018-04-17T15:17:42.740Z,99131.14
2018-04-17T15:20:14.289Z,99130.18
2018-04-17T15:22:45.919Z,99129.25
2018-04-17T15:25:15.034Z,99128.62
2018-04-17T15:27:47.053Z,99126.16
2018-04-17T15:30:19.482Z,99128.79
2018-04-17T15:32:50.077Z,99131.63
2018-04-17T15:35:19.469Z,99124.84
2018-04-17T15:37:48.895Z,99132.20
2018-04-17T15:40:17.686Z,99130.56
2018-04-17T15:42:46.443Z,99130.98
2018-04-17T15:45:15.263Z,99143.01
2018-04-17T15:47:44.180Z,99140.72
2018-04-17T15:50:12.859Z,99133.10
2018-04-17T15:52:41.624Z,99142.78
2018-04-17T15:55:11.194Z,99140.83
2018-04-17T15:57:40.087Z,99142.76
2018-04-17T16:00:09.479Z,99137.74
2018-04-17T16:02:40.261Z,99135.48
2018-04-17T16:05:10.092Z,99134.66
2018-04-17T16:07:39.072Z,99135.52
2018-04-17T16:10:07.943Z,99133.34
2018-04-17T16:12:37.756Z,99135.73
2018-04-17T16:15:07.005Z,99139.66
2018-04-17T16:17:36.103Z,99141.17
2018-04-17T16:20:05.072Z,99139.61
2018-04-17T16:22:34.586Z,99137.27
2018-04-17T16:25:05.235Z,99143.00
2018-04-17T16:27:35.487Z,99137.72
2018-04-17T16:30:05.689Z,99143.31
2018-04-17T16:32:34.477Z,99142.16
2018-04-17T16:35:03.453Z,99148.11
2018-04-17T16:37:36.344Z,99152.01
2018-04-17T16:40:05.193Z,99152.81
2018-04-17T16:42:35.190Z,99156.33
2018-04-17T16:45:04.516Z,99157.92
2018-04-17T16:47:33.239Z,99156.95
2018-04-17T16:50:01.799Z,99159.88
2018-04-17T16:52:30.664Z,99169.94
2018-04-17T16:55:00.480Z,99171.25
2018-04-17T16:57:31.223Z,99180.34
2018-04-17T17:00:00.106Z,99184.11
2018-04-17T17:02:30.264Z,99186.01
2018-04-17T17:04:59.825Z,99188.30
2018-04-17T17:07:29.507Z,99187.17
2018-04-17T17:09:58.200Z,99190.51
2018-04-17T17:12:26.899Z,99181.47
2018-04-17T17:14:55.637Z,99190.39
2018-04-17T17:17:25.229Z,99188.74
2018-04-17T17:19:54.361Z,99184.60
2018-04-17T17:22:23.392Z,99183.77
2018-04-17T17:24:52.812Z,99190.84
2018-04-17T17:27:22.042Z,99190.75
2018-04-17T17:29:50.797Z,99194.81
2018-04-17T17:32:20.349Z,99197.23
2018-04-17T17:34:49.145Z,99207.44
2018-04-17T17:37:18.096Z,99208.77
2018-04-17T17:39:46.970Z,99214.39
2018-04-17T17:42:16.049Z,99215.84
2018-04-17T17:44:44.778Z,99222.15
2018-04-17T17:47:14.451Z,99221.06
2018-04-17T17:49:43.308Z,99230.23
2018-04-17T17:52:12.304Z,99237.16
2018-04-17T17:54:41.702Z,99234.30
2018-04-17T17:57:11.702Z,99240.73
2018-04-17T17:59:40.985Z,99238.53
2018-04-17T18:02:09.758Z,99240.93
2018-04-17T18:04:38.415Z,99246.27
2018-04-17T18:07:07.114Z,99250.44
2018-04-17T18:09:35.801Z,99254.42
2018-04-17T18:12:04.810Z,99263.83
2018-04-17T18:14:33.418Z,99268.33
2018-04-17T18:17:03.253Z,99265.72
2018-04-17T18:19:31.911Z,99271.72
2018-04-17T18:22:01.263Z,99277.31
2018-04-17T18:24:30.385Z,99278.97
2018-04-17T18:26:59.610Z,99283.98
2018-04-17T18:29:29.549Z,99288.31
2018-04-17T18:31:58.522Z,99302.92
2018-04-17T18:34:27.437Z,99309.26
2018-04-17T18:36:56.220Z,99310.45
2018-04-17T18:39:25.613Z,99316.66
2018-04-17T18:41:54.629Z,99316.72
2018-04-17T18:44:23.451Z,99326.54
2018-04-17T18:46:52.473Z,99328.36
2018-04-17T18:49:22.108Z,99336.69
2018-04-17T18:51:52.029Z,99338.64
2018-04-17T18:54:22.564Z,99343.42
2018-04-17T18:56:51.843Z,99352.02
2018-04-17T18:59:21.114Z,99356.45
2018-04-17T19:01:49.885Z,99360.80
2018-04-17T19:04:18.609Z,99362.39
2018-04-17T19:06:47.433Z,99357.48
2018-04-17T19:09:16.149Z,99365.16
2018-04-17T19:11:44.973Z,99371.62
2018-04-17T19:14:14.828Z,99372.16
2018-04-17T19:16:44.891Z,99380.95
2018-04-17T19:19:14.058Z,99386.97
2018-04-17T19:21:44.642Z,99389.07
2018-04-17T19:24:14.362Z,99390.81
2018-04-17T19:26:44.027Z,99393.01
2018-04-17T19:29:13.111Z,99398.08
2018-04-17T19:31:42.176Z,99393.69
2018-04-17T19:34:11.092Z,99392.59
2018-04-17T19:36:39.827Z,99395.38
2018-04-17T19:39:10.101Z,99399.55
2018-04-17T19:41:39.585Z,99401.19
2018-04-17T19:44:08.768Z,99400.48
2018-04-17T19:46:37.711Z,99402.65
2018-04-17T19:49:06.683Z,99407.09
2018-04-17T19:51:35.792Z,99407.57
2018-04-17T19:54:05.422Z,99413.26
2018-04-17T19:56:34.307Z,99417.48
2018-04-17T19:59:03.909Z,99416.36
2018-04-17T20:01:32.589Z,99420.56
2018-04-17T20:04:01.303Z,99425.04
2018-04-17T20:06:30.078Z,99427.56
2018-04-17T20:08:59.119Z,99422.54
2018-04-17T20:11:28.042Z,99437.89
2018-04-17T20:13:57.082Z,99438.76
2018-04-17T20:16:27.185Z,99449.42
2018-04-17T20:18:56.011Z,99457.92
2018-04-17T20:21:26.187Z,99460.89
2018-04-17T20:23:58.088Z,99453.83
2018-04-17T20:26:28.037Z,99452.87
2018-04-17T20:28:56.933Z,99460.81
2018-04-17T20:31:26.567Z,99464.44
2018-04-17T20:33:56.333Z,99456.94
2018-04-17T20:36:25.907Z,99456.38
2018-04-17T20:38:55.560Z,99457.56
2018-04-17T20:41:24.506Z,99458.46
2018-04-17T20:43:53.842Z,99465.30
2018-04-17T20:46:22.937Z,99465.87
2018-04-17T20:48:53.103Z,99464.19
2018-04-17T20:51:22.347Z,99456.64
2018-04-17T20:53:53.051Z,99455.61
2018-04-17T20:56:22.487Z,99459.19
2018-04-17T20:58:51.322Z,99467.75
2018-04-17T21:01:20.626Z,99464.26
2018-04-17T21:03:49.989Z,99464.51
2018-04-17T21:06:19.527Z,99467.72
2018-04-17T21:08:48.251Z,99480.13
2018-04-17T21:11:16.879Z,99476.64
2018-04-17T21:13:45.564Z,99478.88
2018-04-17T21:16:15.056Z,99477.73
2018-04-17T21:18:44.936Z,99483.02
2018-04-17T21:21:13.694Z,99482.59
2018-04-17T21:23:43.047Z,99482.78
2018-04-17T21:26:12.497Z,99492.47
2018-04-17T21:28:41.179Z,99496.55
2018-04-17T21:31:09.846Z,99495.97
2018-04-17T21:33:38.499Z,99500.94
2018-04-17T21:36:07.072Z,99497.41
2018-04-17T21:38:35.704Z,99500.33
2018-04-17T21:41:04.534Z,99506.03
2018-04-17T21:43:33.239Z,99507.66
2018-04-17T21:46:01.899Z,99504.40
2018-04-17T21:48:31.412Z,99508.48
2018-04-17T21:51:00.393Z,99501.36
2018-04-17T21:53:29.158Z,99498.67
2018-04-17T21:55:58.525Z,99503.89
2018-04-17T21:58:27.130Z,99501.78
2018-04-17T22:00:55.810Z,99518.89
2018-04-17T22:03:24.463Z,99515.25
2018-04-17T22:05:53.067Z,99519.32
2018-04-17T22:08:22.472Z,99519.55
2018-04-17T22:10:51.085Z,99524.56
2018-04-17T22:13:19.707Z,99523.50
2018-04-17T22:15:48.374Z,99520.80
2018-04-17T22:18:17.143Z,99518.80
2018-04-17T22:20:46.414Z,99518.11
2018-04-17T22:23:15.753Z,99522.66
2018-04-17T22:25:44.479Z,99530.77
2018-04-17T22:28:13.230Z,99528.27
2018-04-17T22:30:41.933Z,99532.05
2018-04-17T22:33:11.452Z,99537.16
2018-04-17T22:35:40.883Z,99531.94
2018-04-17T22:38:09.668Z,99540.89
2018-04-17T22:40:38.461Z,99539.03
2018-04-17T22:43:07.129Z,99532.28
2018-04-17T22:45:35.915Z,99533.30
2018-04-17T22:48:05.383Z,99529.14
2018-04-17T22:50:34.852Z,99530.55
2018-04-17T22:53:03.871Z,99536.14
2018-04-17T22:55:32.585Z,99540.55
2018-04-17T22:58:02.135Z,99541.04
2018-04-17T23:00:30.793Z,99544.37
2018-04-17T23:02:59.459Z,99547.54
2018-04-17T23:05:28.099Z,99542.52
2018-04-17T23:07:56.683Z,99553.70
2018-04-17T23:10:25.347Z,99556.16
2018-04-17T23:12:54.741Z,99553.21
2018-04-17T23:15:23.422Z,99551.72
2018-04-17T23:17:52.048Z,99550.91
2018-04-17T23:20:20.775Z,99554.84
2018-04-17T23:22:49.636Z,99548.34
2018-04-17T23:25:18.946Z,99552.44
2018-04-17T23:27:47.753Z,99549.98
2018-04-17T23:30:16.344Z,99553.94
2018-04-17T23:32:45.676Z,99555.38
2018-04-17T23:35:15.075Z,99556.91
2018-04-17T23:37:44.439Z,99556.57
2018-04-17T23:40:13.033Z,99554.06
2018-04-17T23:42:41.673Z,99549.92
2018-04-17T23:45:10.322Z,99550.87
2018-04-17T23:47:39.746Z,99550.48
2018-04-17T23:50:09.105Z,99551.77
2018-04-17T23:52:37.927Z,99558.86
2018-04-17T23:55:07.445Z,99560.27
2018-04-17T23:57:36.341Z,99566.48
